createdAt,value
2017-11-14T00:01:35.471Z,102451.81
2017-11-14T00:04:03.771Z,102450.07
2017-11-14T00:06:32.876Z,102454.06
2017-11-14T00:09:01.971Z,102455.45
2017-11-14T00:11:31.066Z,102454.88
2017-11-14T00:14:00.142Z,102454.61
2017-11-14T00:16:28.442Z,102461.54
2017-11-14T00:18:57.536Z,102456.81
2017-11-14T00:21:25.821Z,102454.62
2017-11-14T00:23:54.118Z,102456.81
2017-11-14T00:26:23.188Z,102462.71
2017-11-14T00:28:51.500Z,102456.62
2017-11-14T00:31:20.568Z,102456.34
2017-11-14T00:33:48.890Z,102462.38
2017-11-14T00:36:17.224Z,102467.10
2017-11-14T00:38:45.654Z,102466.95
2017-11-14T00:41:14.734Z,102460.87
2017-11-14T00:43:43.812Z,102461.84
2017-11-14T00:46:12.871Z,102461.37
2017-11-14T00:48:41.174Z,102458.58
2017-11-14T00:51:09.502Z,102463.97
2017-11-14T00:53:38.567Z,102464.15
2017-11-14T00:56:06.869Z,102471.30
2017-11-14T00:58:35.177Z,102455.98
2017-11-14T01:01:03.463Z,102456.95
2017-11-14T01:03:31.774Z,102454.42
2017-11-14T01:06:00.152Z,102459.97
2017-11-14T01:08:28.460Z,102452.58
2017-11-14T01:10:56.771Z,102452.29
2017-11-14T01:13:25.847Z,102451.87
2017-11-14T01:15:54.146Z,102449.09
2017-11-14T01:18:22.482Z,102449.38
2017-11-14T01:20:50.814Z,102444.91
2017-11-14T01:23:19.875Z,102447.02
2017-11-14T01:25:48.203Z,102446.72
2017-11-14T01:28:17.409Z,102449.74
2017-11-14T01:30:46.469Z,102442.19
2017-11-14T01:33:14.783Z,102442.05
2017-11-14T01:35:43.848Z,102442.59
2017-11-14T01:38:12.158Z,102442.03
2017-11-14T01:40:41.243Z,102443.16
2017-11-14T01:43:09.567Z,102432.94
2017-11-14T01:45:37.874Z,102435.17
2017-11-14T01:48:06.173Z,102433.20
2017-11-14T01:50:36.017Z,102443.36
2017-11-14T01:53:05.090Z,102436.70
2017-11-14T01:55:34.173Z,102428.50
2017-11-14T01:58:02.627Z,102419.04
2017-11-14T02:00:48.795Z,102419.56
2017-11-14T02:03:17.849Z,102419.76
2017-11-14T02:05:46.154Z,102420.17
2017-11-14T02:08:15.361Z,102420.67
2017-11-14T02:10:44.424Z,102414.48
2017-11-14T02:13:12.759Z,102417.52
2017-11-14T02:15:41.850Z,102413.39
2017-11-14T02:18:10.983Z,102414.94
2017-11-14T02:20:39.282Z,102412.62
2017-11-14T02:23:07.574Z,102418.23
2017-11-14T02:25:35.867Z,102412.00
2017-11-14T02:28:04.159Z,102407.64
2017-11-14T02:30:32.465Z,102399.30
2017-11-14T02:33:01.526Z,102397.91
2017-11-14T02:35:29.836Z,102389.64
2017-11-14T02:37:58.900Z,102383.82
2017-11-14T02:40:27.207Z,102386.70
2017-11-14T02:42:56.317Z,102391.48
2017-11-14T02:45:25.392Z,102397.41
2017-11-14T02:47:53.837Z,102403.45
2017-11-14T02:50:22.149Z,102399.11
2017-11-14T02:52:50.459Z,102396.03
2017-11-14T02:55:19.568Z,102397.58
2017-11-14T02:57:48.679Z,102393.02
2017-11-14T03:00:16.988Z,102389.37
2017-11-14T03:02:45.293Z,102379.45
2017-11-14T03:05:13.589Z,102381.76
2017-11-14T03:07:43.403Z,102377.41
2017-11-14T03:10:13.219Z,102368.44
2017-11-14T03:12:41.512Z,102375.44
2017-11-14T03:15:09.844Z,102368.98
2017-11-14T03:17:38.140Z,102367.02
2017-11-14T03:20:06.487Z,102358.21
2017-11-14T03:22:34.818Z,102364.91
2017-11-14T03:25:03.120Z,102356.36
2017-11-14T03:27:32.211Z,102359.94
2017-11-14T03:30:00.531Z,102360.92
2017-11-14T03:32:28.853Z,102361.34
2017-11-14T03:34:57.156Z,102365.19
2017-11-14T03:37:25.451Z,102361.20
2017-11-14T03:39:53.869Z,102365.12
2017-11-14T03:42:22.175Z,102356.56
2017-11-14T03:44:50.502Z,102347.96
2017-11-14T03:47:19.624Z,102342.30
2017-11-14T03:49:47.921Z,102344.27
2017-11-14T03:52:16.237Z,102340.91
2017-11-14T03:54:46.042Z,102326.67
2017-11-14T03:57:14.336Z,102321.92
2017-11-14T03:59:42.633Z,102321.64
2017-11-14T04:02:10.956Z,102329.21
2017-11-14T04:04:39.352Z,102324.95
2017-11-14T04:07:07.661Z,102326.84
2017-11-14T04:09:35.961Z,102329.21
2017-11-14T04:12:04.268Z,102328.84
2017-11-14T04:14:33.346Z,102334.60
2017-11-14T04:17:02.392Z,102331.08
2017-11-14T04:19:30.707Z,102334.97
2017-11-14T04:21:59.019Z,102338.07
2017-11-14T04:24:28.094Z,102341.34
2017-11-14T04:26:56.448Z,102338.66
2017-11-14T04:29:24.784Z,102340.57
2017-11-14T04:31:53.848Z,102333.77
2017-11-14T04:34:22.225Z,102334.19
2017-11-14T04:36:50.537Z,102331.33
2017-11-14T04:39:19.602Z,102334.89
2017-11-14T04:41:47.899Z,102331.27
2017-11-14T04:44:16.989Z,102328.19
2017-11-14T04:46:45.349Z,102335.95
2017-11-14T04:49:13.642Z,102339.25
2017-11-14T04:51:41.973Z,102342.91
2017-11-14T04:54:11.028Z,102347.88
2017-11-14T04:56:39.322Z,102348.80
2017-11-14T04:59:07.660Z,102356.14
2017-11-14T05:01:35.961Z,102358.02
2017-11-14T05:04:04.260Z,102363.88
2017-11-14T05:06:33.326Z,102366.91
2017-11-14T05:09:01.640Z,102369.56
2017-11-14T05:11:29.940Z,102370.35
2017-11-14T05:13:58.257Z,102355.41
2017-11-14T05:16:26.546Z,102349.79
2017-11-14T05:18:54.846Z,102338.57
2017-11-14T05:21:23.147Z,102333.70
2017-11-14T05:23:51.451Z,102329.03
2017-11-14T05:26:19.751Z,102322.71
2017-11-14T05:28:48.814Z,102324.05
2017-11-14T05:31:17.120Z,102331.28
2017-11-14T05:33:46.177Z,102322.78
2017-11-14T05:36:14.458Z,102319.06
2017-11-14T05:38:43.517Z,102314.64
2017-11-14T05:41:11.844Z,102314.16
2017-11-14T05:43:40.152Z,102312.14
2017-11-14T05:46:09.228Z,102307.51
2017-11-14T05:48:37.545Z,102313.75
2017-11-14T05:51:06.645Z,102308.64
2017-11-14T05:53:35.731Z,102301.00
2017-11-14T05:56:04.828Z,102306.47
2017-11-14T05:58:33.132Z,102312.89
2017-11-14T06:01:02.240Z,102313.62
2017-11-14T06:03:30.544Z,102303.56
2017-11-14T06:05:58.840Z,102315.28
2017-11-14T06:08:27.256Z,102315.20
2017-11-14T06:10:55.542Z,102319.96
2017-11-14T06:13:23.855Z,102320.84
2017-11-14T06:15:52.139Z,102318.64
2017-11-14T06:18:20.522Z,102314.30
2017-11-14T06:20:48.843Z,102308.14
2017-11-14T06:23:17.141Z,102299.77
2017-11-14T06:25:45.453Z,102297.48
2017-11-14T06:28:13.759Z,102301.73
2017-11-14T06:30:42.057Z,102312.41
2017-11-14T06:33:10.362Z,102312.36
2017-11-14T06:35:38.676Z,102310.67
2017-11-14T06:38:07.741Z,102313.41
2017-11-14T06:40:36.047Z,102317.67
2017-11-14T06:43:05.163Z,102318.94
2017-11-14T06:45:33.482Z,102314.11
2017-11-14T06:48:02.536Z,102312.34
2017-11-14T06:50:31.584Z,102308.58
2017-11-14T06:53:00.045Z,102305.08
2017-11-14T06:55:28.336Z,102306.70
2017-11-14T06:57:56.637Z,102308.05
2017-11-14T07:00:24.930Z,102314.58
2017-11-14T07:02:53.250Z,102313.34
2017-11-14T07:05:22.318Z,102312.99
2017-11-14T07:07:52.110Z,102311.32
2017-11-14T07:10:20.430Z,102307.09
2017-11-14T07:12:49.497Z,102300.66
2017-11-14T07:15:17.803Z,102301.00
2017-11-14T07:17:46.101Z,102305.34
2017-11-14T07:20:14.419Z,102307.67
2017-11-14T07:22:42.724Z,102311.22
2017-11-14T07:25:11.062Z,102311.56
2017-11-14T07:27:39.460Z,102320.31
2017-11-14T07:30:07.795Z,102319.95
2017-11-14T07:32:36.117Z,102305.72
2017-11-14T07:35:04.438Z,102301.22
2017-11-14T07:37:32.749Z,102300.05
2017-11-14T07:40:01.821Z,102298.02
2017-11-14T07:42:30.108Z,102307.16
2017-11-14T07:44:58.404Z,102312.04
2017-11-14T07:47:26.709Z,102312.31
2017-11-14T07:49:55.048Z,102317.91
2017-11-14T07:52:23.353Z,102316.31
2017-11-14T07:54:52.425Z,102313.49
2017-11-14T07:57:21.501Z,102314.98
2017-11-14T07:59:49.826Z,102318.66
2017-11-14T08:02:18.465Z,102317.22
2017-11-14T08:04:46.763Z,102327.84
2017-11-14T08:07:15.055Z,102333.97
2017-11-14T08:09:43.361Z,102329.95
2017-11-14T08:12:12.443Z,102324.66
2017-11-14T08:14:40.739Z,102317.54
2017-11-14T08:17:09.856Z,102317.58
2017-11-14T08:19:38.914Z,102320.66
2017-11-14T08:22:07.224Z,102326.18
2017-11-14T08:24:37.121Z,102330.21
2017-11-14T08:27:06.212Z,102335.66
2017-11-14T08:29:34.602Z,102340.49
2017-11-14T08:32:02.906Z,102341.01
2017-11-14T08:34:32.104Z,102349.01
2017-11-14T08:37:01.187Z,102353.38
2017-11-14T08:39:30.276Z,102359.39
2017-11-14T08:41:58.583Z,102351.44
2017-11-14T08:44:26.917Z,102356.20
2017-11-14T08:46:55.227Z,102350.64
2017-11-14T08:49:24.318Z,102353.64
2017-11-14T08:51:52.643Z,102349.56
2017-11-14T08:54:21.716Z,102339.45
2017-11-14T08:56:50.022Z,102342.06
2017-11-14T08:59:19.088Z,102339.75
2017-11-14T09:01:48.970Z,102347.23
2017-11-14T09:04:17.315Z,102340.57
2017-11-14T09:06:46.536Z,102329.06
2017-11-14T09:09:14.849Z,102337.92
2017-11-14T09:11:43.154Z,102334.25
2017-11-14T09:14:11.467Z,102337.12
2017-11-14T09:16:40.546Z,102343.39
2017-11-14T09:19:08.866Z,102340.05
2017-11-14T09:21:37.188Z,102334.83
2017-11-14T09:24:05.503Z,102333.50
2017-11-14T09:26:34.363Z,102338.50
2017-11-14T09:29:02.691Z,102339.77
2017-11-14T09:31:31.773Z,102351.53
2017-11-14T09:34:00.096Z,102354.95
2017-11-14T09:36:28.414Z,102350.17
2017-11-14T09:38:56.724Z,102351.70
2017-11-14T09:41:26.084Z,102345.78
2017-11-14T09:43:54.408Z,102348.95
2017-11-14T09:46:22.718Z,102346.16
2017-11-14T09:48:51.124Z,102351.17
2017-11-14T09:51:19.460Z,102343.91
2017-11-14T09:53:48.632Z,102337.30
2017-11-14T09:56:17.739Z,102339.71
2017-11-14T09:58:47.644Z,102340.77
2017-11-14T10:01:15.968Z,102350.78
2017-11-14T10:03:45.039Z,102351.87
2017-11-14T10:06:13.342Z,102347.48
2017-11-14T10:08:42.444Z,102345.88
2017-11-14T10:11:11.533Z,102335.47
2017-11-14T10:13:39.855Z,102354.58
2017-11-14T10:16:08.173Z,102355.05
2017-11-14T10:18:36.505Z,102360.50
2017-11-14T10:21:04.850Z,102343.30
2017-11-14T10:23:33.161Z,102356.05
2017-11-14T10:26:02.312Z,102352.58
2017-11-14T10:28:30.703Z,102348.97
2017-11-14T10:30:59.022Z,102347.88
2017-11-14T10:33:28.179Z,102346.14
2017-11-14T10:35:56.591Z,102341.80
2017-11-14T10:38:24.910Z,102347.00
2017-11-14T10:40:53.230Z,102346.25
2017-11-14T10:43:21.685Z,102351.44
2017-11-14T10:45:50.034Z,102344.25
2017-11-14T10:48:19.164Z,102355.95
2017-11-14T10:50:47.491Z,102345.85
2017-11-14T10:53:15.860Z,102333.42
2017-11-14T10:55:44.194Z,102330.41
2017-11-14T10:58:12.509Z,102329.48
2017-11-14T11:00:40.838Z,102321.48
2017-11-14T11:03:09.980Z,102317.31
2017-11-14T11:05:38.322Z,102318.57
2017-11-14T11:08:07.408Z,102318.88
2017-11-14T11:10:35.763Z,102327.00
2017-11-14T11:13:04.093Z,102322.23
2017-11-14T11:15:33.180Z,102320.14
2017-11-14T11:18:01.559Z,102316.22
2017-11-14T11:20:30.632Z,102317.89
2017-11-14T11:22:58.955Z,102318.30
2017-11-14T11:25:28.033Z,102323.56
2017-11-14T11:27:56.358Z,102321.81
2017-11-14T11:30:24.671Z,102312.88
2017-11-14T11:32:53.924Z,102313.95
2017-11-14T11:35:23.002Z,102319.23
2017-11-14T11:37:51.314Z,102324.32
2017-11-14T11:40:19.622Z,102317.96
2017-11-14T11:42:48.024Z,102316.79
2017-11-14T11:45:16.354Z,102321.72
2017-11-14T11:47:44.759Z,102317.18
2017-11-14T11:50:13.113Z,102319.51
2017-11-14T11:52:41.423Z,102319.65
2017-11-14T11:55:09.741Z,102321.17
2017-11-14T11:57:38.066Z,102323.15
2017-11-14T12:00:07.152Z,102313.88
2017-11-14T12:02:36.218Z,102323.70
2017-11-14T12:05:04.542Z,102327.97
2017-11-14T12:07:33.766Z,102321.45
2017-11-14T12:10:02.086Z,102319.03
2017-11-14T12:12:30.408Z,102311.50
2017-11-14T12:14:59.503Z,102319.86
2017-11-14T12:17:28.600Z,102321.18
2017-11-14T12:19:57.673Z,102325.27
2017-11-14T12:22:26.064Z,102330.09
2017-11-14T12:24:54.393Z,102332.80
2017-11-14T12:27:23.120Z,102334.31
2017-11-14T12:29:51.437Z,102330.88
2017-11-14T12:32:20.532Z,102339.41
2017-11-14T12:34:49.612Z,102333.90
2017-11-14T12:37:17.927Z,102332.59
2017-11-14T12:39:47.015Z,102339.68
2017-11-14T12:42:16.123Z,102337.41
2017-11-14T12:44:44.461Z,102336.82
2017-11-14T12:47:12.771Z,102336.45
2017-11-14T12:49:41.097Z,102341.53
2017-11-14T12:52:09.416Z,102340.44
2017-11-14T12:54:37.706Z,102341.11
2017-11-14T12:57:06.088Z,102342.63
2017-11-14T12:59:34.422Z,102343.41
2017-11-14T13:02:02.749Z,102345.99
2017-11-14T13:04:31.065Z,102338.50
2017-11-14T13:07:00.145Z,102337.66
2017-11-14T13:09:28.464Z,102342.92
2017-11-14T13:11:56.771Z,102342.17
2017-11-14T13:14:25.087Z,102340.67
2017-11-14T13:16:53.509Z,102336.84
2017-11-14T13:19:21.844Z,102332.86
2017-11-14T13:21:50.161Z,102332.77
2017-11-14T13:24:18.469Z,102331.13
2017-11-14T13:26:46.811Z,102337.45
2017-11-14T13:29:16.004Z,102336.70
2017-11-14T13:31:44.367Z,102333.80
2017-11-14T13:34:12.667Z,102331.28
2017-11-14T13:36:40.997Z,102334.57
2017-11-14T13:39:09.324Z,102329.05
2017-11-14T13:41:37.694Z,102331.81
2017-11-14T13:44:06.001Z,102335.42
2017-11-14T13:46:35.130Z,102334.00
2017-11-14T13:49:03.458Z,102336.25
2017-11-14T13:51:31.819Z,102338.77
2017-11-14T13:54:00.129Z,102334.68
2017-11-14T13:56:28.453Z,102332.81
2017-11-14T13:58:56.780Z,102340.50
2017-11-14T14:01:25.105Z,102341.93
2017-11-14T14:03:53.443Z,102336.27
2017-11-14T14:06:21.772Z,102339.53
2017-11-14T14:08:50.092Z,102336.58
2017-11-14T14:11:18.402Z,102341.52
2017-11-14T14:13:46.724Z,102341.77
2017-11-14T14:16:15.027Z,102339.86
2017-11-14T14:18:43.354Z,102336.17
2017-11-14T14:21:11.701Z,102334.42
2017-11-14T14:23:40.059Z,102332.17
2017-11-14T14:26:08.361Z,102337.27
2017-11-14T14:28:36.695Z,102340.19
2017-11-14T14:31:05.785Z,102340.08
2017-11-14T14:33:34.096Z,102340.61
2017-11-14T14:36:02.439Z,102344.27
2017-11-14T14:38:30.765Z,102343.02
2017-11-14T14:40:59.070Z,102342.96
2017-11-14T14:43:27.393Z,102343.85
2017-11-14T14:45:55.708Z,102349.14
2017-11-14T14:48:24.042Z,102343.14
2017-11-14T14:50:52.344Z,102340.88
2017-11-14T14:53:21.419Z,102343.73
2017-11-14T14:55:49.731Z,102349.38
2017-11-14T14:58:18.806Z,102344.36
2017-11-14T15:00:47.145Z,102345.70
2017-11-14T15:03:15.440Z,102349.88
2017-11-14T15:05:43.745Z,102347.80
2017-11-14T15:08:12.063Z,102350.22
2017-11-14T15:10:41.160Z,102347.46
2017-11-14T15:13:10.249Z,102351.31
2017-11-14T15:15:39.300Z,102349.55
2017-11-14T15:18:07.608Z,102354.65
2017-11-14T15:20:35.918Z,102347.88
2017-11-14T15:23:05.001Z,102347.30
2017-11-14T15:25:33.319Z,102340.95
2017-11-14T15:28:01.624Z,102344.63
2017-11-14T15:30:30.699Z,102348.55
2017-11-14T15:32:59.086Z,102348.55
2017-11-14T15:35:28.174Z,102349.02
2017-11-14T15:37:56.506Z,102347.52
2017-11-14T15:40:24.824Z,102349.61
2017-11-14T15:42:53.909Z,102344.27
2017-11-14T15:45:23.002Z,102349.28
2017-11-14T15:47:51.318Z,102353.88
2017-11-14T15:50:19.666Z,102352.29
2017-11-14T15:52:47.975Z,102354.05
2017-11-14T15:55:17.067Z,102351.28
2017-11-14T15:57:46.244Z,102351.42
2017-11-14T16:00:14.565Z,102345.32
2017-11-14T16:02:42.874Z,102351.25
2017-11-14T16:05:11.216Z,102354.94
2017-11-14T16:07:40.304Z,102351.76
2017-11-14T16:10:09.381Z,102358.28
2017-11-14T16:12:37.713Z,102355.44
2017-11-14T16:15:06.037Z,102352.93
2017-11-14T16:17:34.389Z,102355.52
2017-11-14T16:20:02.704Z,102353.84
2017-11-14T16:22:31.021Z,102355.27
2017-11-14T16:25:00.105Z,102359.70
2017-11-14T16:27:28.530Z,102355.02
2017-11-14T16:29:56.852Z,102367.64
2017-11-14T16:32:25.158Z,102361.70
2017-11-14T16:34:53.485Z,102367.55
2017-11-14T16:37:21.801Z,102377.00
2017-11-14T16:39:50.130Z,102359.87
2017-11-14T16:42:18.525Z,102365.94
2017-11-14T16:44:46.911Z,102370.20
2017-11-14T16:47:15.228Z,102375.55
2017-11-14T16:49:43.605Z,102383.91
2017-11-14T16:52:11.948Z,102383.66
2017-11-14T16:54:40.274Z,102385.50
2017-11-14T16:57:08.598Z,102382.91
2017-11-14T16:59:37.721Z,102384.50
2017-11-14T17:02:06.026Z,102391.85
2017-11-14T17:04:34.364Z,102391.98
2017-11-14T17:07:02.681Z,102393.24
2017-11-14T17:09:31.014Z,102405.03
2017-11-14T17:12:00.098Z,102392.83
2017-11-14T17:14:28.486Z,102401.77
2017-11-14T17:16:57.578Z,102397.84
2017-11-14T17:19:25.880Z,102392.48
2017-11-14T17:21:54.978Z,102406.20
2017-11-14T17:24:24.096Z,102406.70
2017-11-14T17:26:52.425Z,102406.03
2017-11-14T17:29:20.742Z,102409.21
2017-11-14T17:31:49.838Z,102409.71
2017-11-14T17:34:18.951Z,102403.02
2017-11-14T17:36:48.027Z,102408.67
2017-11-14T17:39:16.358Z,102409.27
2017-11-14T17:41:44.690Z,102405.66
2017-11-14T17:44:13.017Z,102409.17
2017-11-14T17:46:41.373Z,102404.16
2017-11-14T17:49:10.491Z,102408.97
2017-11-14T17:51:38.809Z,102405.45
2017-11-14T17:54:07.122Z,102412.56
2017-11-14T17:56:35.438Z,102413.73
2017-11-14T17:59:03.758Z,102414.82
2017-11-14T18:01:32.078Z,102414.32
2017-11-14T18:04:01.186Z,102426.87
2017-11-14T18:06:30.277Z,102427.20
2017-11-14T18:08:59.393Z,102432.64
2017-11-14T18:11:27.796Z,102431.77
2017-11-14T18:13:56.173Z,102435.36
2017-11-14T18:16:24.472Z,102434.60
2017-11-14T18:18:52.794Z,102432.84
2017-11-14T18:21:21.876Z,102440.04
2017-11-14T18:23:50.185Z,102427.74
2017-11-14T18:26:19.420Z,102435.27
2017-11-14T18:28:47.724Z,102433.52
2017-11-14T18:31:16.031Z,102438.88
2017-11-14T18:33:44.340Z,102440.55
2017-11-14T18:36:13.459Z,102437.37
2017-11-14T18:38:41.762Z,102441.05
2017-11-14T18:41:10.074Z,102447.33
2017-11-14T18:43:38.389Z,102444.31
2017-11-14T18:46:07.480Z,102442.98
2017-11-14T18:48:36.587Z,102438.16
2017-11-14T18:51:04.923Z,102437.41
2017-11-14T18:53:33.245Z,102432.59
2017-11-14T18:56:02.358Z,102444.10
2017-11-14T18:58:30.696Z,102442.88
2017-11-14T19:00:59.022Z,102444.39
2017-11-14T19:03:27.350Z,102444.80
2017-11-14T19:05:55.685Z,102440.79
2017-11-14T19:08:24.013Z,102442.34
2017-11-14T19:10:52.364Z,102439.37
2017-11-14T19:13:20.666Z,102444.22
2017-11-14T19:15:48.985Z,102447.20
2017-11-14T19:18:18.128Z,102451.66
2017-11-14T19:20:46.448Z,102447.81
2017-11-14T19:23:14.847Z,102448.48
2017-11-14T19:25:43.944Z,102458.35
2017-11-14T19:28:12.279Z,102456.93
2017-11-14T19:30:40.598Z,102455.84
2017-11-14T19:33:08.931Z,102459.61
2017-11-14T19:35:37.236Z,102453.33
2017-11-14T19:38:06.310Z,102462.28
2017-11-14T19:40:34.649Z,102461.87
2017-11-14T19:43:02.972Z,102465.30
2017-11-14T19:45:31.287Z,102462.28
2017-11-14T19:47:59.617Z,102470.23
2017-11-14T19:50:28.692Z,102464.88
2017-11-14T19:52:57.063Z,102469.05
2017-11-14T19:55:25.397Z,102463.63
2017-11-14T19:57:53.710Z,102465.16
2017-11-14T20:00:22.059Z,102455.53
2017-11-14T20:02:50.373Z,102463.98
2017-11-14T20:05:18.694Z,102467.49
2017-11-14T20:07:46.995Z,102469.08
2017-11-14T20:10:16.107Z,102477.77
2017-11-14T20:12:45.174Z,102475.12
2017-11-14T20:15:13.515Z,102475.87
2017-11-14T20:17:41.861Z,102474.53
2017-11-14T20:20:10.185Z,102482.05
2017-11-14T20:22:38.493Z,102482.05
2017-11-14T20:25:06.820Z,102485.14
2017-11-14T20:27:35.157Z,102484.30
2017-11-14T20:30:03.475Z,102476.79
2017-11-14T20:32:31.773Z,102483.31
2017-11-14T20:35:00.081Z,102479.97
2017-11-14T20:37:29.213Z,102484.30
2017-11-14T20:39:57.537Z,102480.55
2017-11-14T20:42:25.853Z,102481.88
2017-11-14T20:44:54.172Z,102476.70
2017-11-14T20:47:23.330Z,102475.28
2017-11-14T20:49:51.645Z,102474.11
2017-11-14T20:52:20.007Z,102476.53
2017-11-14T20:54:48.353Z,102473.28
2017-11-14T20:57:17.436Z,102470.09
2017-11-14T20:59:45.740Z,102474.70
2017-11-14T21:02:14.085Z,102480.30
2017-11-14T21:04:43.181Z,102485.39
2017-11-14T21:07:12.239Z,102485.30
2017-11-14T21:09:40.562Z,102489.73
2017-11-14T21:12:09.650Z,102485.06
2017-11-14T21:14:38.737Z,102487.41
2017-11-14T21:17:07.056Z,102483.14
2017-11-14T21:19:35.376Z,102489.66
2017-11-14T21:22:03.732Z,102484.64
2017-11-14T21:24:32.050Z,102488.99
2017-11-14T21:27:00.381Z,102488.98
2017-11-14T21:29:28.685Z,102488.34
2017-11-14T21:31:57.762Z,102491.94
2017-11-14T21:34:26.079Z,102490.92
2017-11-14T21:36:54.381Z,102489.17
2017-11-14T21:39:22.721Z,102484.23
2017-11-14T21:41:51.046Z,102492.02
2017-11-14T21:44:19.353Z,102496.78
2017-11-14T21:46:48.459Z,102495.59
2017-11-14T21:49:17.538Z,102488.83
2017-11-14T21:51:45.867Z,102493.27
2017-11-14T21:54:14.197Z,102494.27
2017-11-14T21:56:42.502Z,102492.08
2017-11-14T21:59:11.582Z,102498.19
2017-11-14T22:01:39.919Z,102495.27
2017-11-14T22:04:08.242Z,102491.32
2017-11-14T22:06:36.561Z,102495.17
2017-11-14T22:09:04.905Z,102494.34
2017-11-14T22:11:33.220Z,102502.22
2017-11-14T22:14:02.317Z,102501.80
2017-11-14T22:16:31.402Z,102502.28
2017-11-14T22:19:00.543Z,102503.12
2017-11-14T22:21:28.850Z,102507.05
2017-11-14T22:23:57.176Z,102507.05
2017-11-14T22:26:26.261Z,102507.22
2017-11-14T22:28:54.574Z,102510.30
2017-11-14T22:31:22.888Z,102513.22
2017-11-14T22:33:51.176Z,102510.41
2017-11-14T22:36:19.499Z,102515.08
2017-11-14T22:38:48.614Z,102512.23
2017-11-14T22:41:16.930Z,102508.80
2017-11-14T22:43:45.236Z,102511.72
2017-11-14T22:46:13.541Z,102512.39
2017-11-14T22:48:42.700Z,102521.83
2017-11-14T22:51:11.031Z,102512.06
2017-11-14T22:53:40.125Z,102516.67
2017-11-14T22:56:09.211Z,102524.45
2017-11-14T22:58:37.523Z,102524.25
2017-11-14T23:01:05.840Z,102524.51
2017-11-14T23:03:34.339Z,102522.75
2017-11-14T23:06:02.668Z,102515.81
2017-11-14T23:08:31.000Z,102520.00
2017-11-14T23:10:59.299Z,102520.34
2017-11-14T23:13:27.626Z,102525.70
2017-11-14T23:15:55.921Z,102521.36
2017-11-14T23:18:24.245Z,102524.95
2017-11-14T23:20:53.336Z,102531.05
2017-11-14T23:23:21.663Z,102530.30
2017-11-14T23:25:49.986Z,102530.80
2017-11-14T23:28:18.383Z,102530.79
2017-11-14T23:30:46.716Z,102530.20
2017-11-14T23:33:15.045Z,102522.67
2017-11-14T23:35:43.376Z,102519.08
2017-11-14T23:38:11.693Z,102521.25
2017-11-14T23:40:40.014Z,102525.27
2017-11-14T23:43:09.105Z,102522.84
2017-11-14T23:45:37.429Z,102528.95
2017-11-14T23:48:05.741Z,102532.05
2017-11-14T23:50:34.080Z,102530.86
2017-11-14T23:53:03.528Z,102536.72
2017-11-14T23:55:31.854Z,102529.20
2017-11-14T23:58:01.242Z,102531.45
